• Join FlightAware (Why Join?)
  • Login
  • US Flag 
06:21PM EDT


 

Airport Tracker/Info


-or-


 

Live Flight TrackerFlight Track Log ✈ PDT4526 ✈ 23-Apr-2012 ✈ KHVN - KPHL

Flight Track Log - Related Links

Times and Time Zones

All times are in EDT time to prevent confusion due to time zone crossing. See the PDT4526 flight status page for this flight to view local times or setup timezone preferences in your user account.

Time Position Orientation Groundspeed Altitude Reporting Facility
EDT Latitude Longitude Course Direction KTS MPH feet Rate Location/Type
01:18PM 41.2000 -72.8833 360° North 146 168 1,000  Level New York TRACON
01:19PM 41.2333 -72.8833 360° North 146 168 600  Descending New York TRACON
01:27PM 40.4299 -72.8991 North  Level FlightAware Approximate
01:28PM 40.3360 -73.0108 North  Level FlightAware Approximate
01:29PM 40.2436 -73.1246 10° North  Level FlightAware Approximate
01:30PM 40.2105 -73.2849 16° North  Level FlightAware Approximate
01:31PM 40.0920 -73.3119 16° North  Level FlightAware Approximate
01:32PM 40.0675 -73.4744 21° North  Level FlightAware Approximate
01:33PM 40.0427 -73.6368 25° Northeast  Level FlightAware Approximate
01:34PM 40.0177 -73.7991 29° Northeast  Level FlightAware Approximate
01:35PM 39.9925 -73.9613 33° Northeast  Level FlightAware Approximate
01:36PM 39.9670 -74.1234 36° Northeast  Level FlightAware Approximate
01:37PM 39.9413 -74.2853 39° Northeast  Level FlightAware Approximate
01:38PM 39.9155 -74.4472 42° Northeast  Level FlightAware Approximate
01:39PM 39.9042 -74.5169 43° Northeast  Level FlightAware Approximate
01:40PM 39.8929 -74.5866 43° Northeast  Level FlightAware Approximate
01:41PM 39.8816 -74.6563 44° Northeast  Level FlightAware Approximate
01:42PM 39.8703 -74.7260 45° Northeast  Level FlightAware Approximate
01:43PM 39.8588 -74.7956 46° Northeast  Level FlightAware Approximate
01:44PM 39.8474 -74.8653 47° Northeast  Level FlightAware Approximate
01:45PM 39.8359 -74.9349 47° Northeast  Level FlightAware Approximate
01:46PM 39.8244 -75.0045 48° Northeast  Level FlightAware Approximate
01:47PM 39.8128 -75.0740 49° Northeast  Level FlightAware Approximate
01:48PM 39.8012 -75.1436 49° Northeast  Level FlightAware Approximate
01:49PM 39.7895 -75.2131 50° Northeast  Level FlightAware Approximate
01:50PM 39.8425 -75.2309 51° Northeast  Level Estimated
01:51PM 40.7672 -72.5558 332° Northwest  Level FlightAware Approximate
01:52PM 40.7443 -72.6214 338° Northwest  Level FlightAware Approximate
01:53PM 40.7214 -72.6869 344° North  Level FlightAware Approximate
01:54PM 40.6985 -72.7524 350° North  Level FlightAware Approximate
01:55PM 40.6755 -72.8178 355° North  Level FlightAware Approximate
01:56PM 40.6525 -72.8832 360° North  Level FlightAware Approximate
01:57PM 40.6294 -72.9485 North  Level FlightAware Approximate
01:58PM 40.6063 -73.0138 North  Level FlightAware Approximate
01:59PM 40.5832 -73.0790 13° North  Level FlightAware Approximate
02:00PM 40.5601 -73.1442 16° North  Level FlightAware Approximate
02:01PM 40.5369 -73.2094 19° North  Level FlightAware Approximate
02:02PM 40.5136 -73.2745 22° Northeast  Level FlightAware Approximate
02:03PM 40.4904 -73.3395 25° Northeast  Level FlightAware Approximate
02:04PM 40.4671 -73.4045 27° Northeast  Level FlightAware Approximate
02:05PM 40.4437 -73.4695 29° Northeast  Level FlightAware Approximate
02:06PM 40.4203 -73.5344 31° Northeast  Level FlightAware Approximate
02:07PM 40.4071 -73.5712 32° Northeast  Level FlightAware Approximate
02:08PM 40.3938 -73.6079 33° Northeast  Level FlightAware Approximate
02:09PM 40.3805 -73.6446 34° Northeast  Level FlightAware Approximate
02:10PM 40.3672 -73.6813 35° Northeast  Level FlightAware Approximate
02:11PM 40.3539 -73.7180 35° Northeast  Level FlightAware Approximate
02:12PM 40.3406 -73.7547 36° Northeast  Level FlightAware Approximate
02:13PM 40.3273 -73.7914 37° Northeast  Level FlightAware Approximate
02:14PM 40.3139 -73.8280 38° Northeast  Level FlightAware Approximate
02:15PM 40.3006 -73.8647 38° Northeast  Level FlightAware Approximate
02:16PM 40.2872 -73.9013 39° Northeast  Level FlightAware Approximate
02:17PM 40.2739 -73.9379 39° Northeast  Level FlightAware Approximate
02:18PM 40.2605 -73.9745 40° Northeast  Level FlightAware Approximate
02:19PM 40.2471 -74.0111 41° Northeast  Level FlightAware Approximate
02:20PM 40.2337 -74.0476 41° Northeast  Level FlightAware Approximate
02:21PM 40.2202 -74.0842 42° Northeast  Level FlightAware Approximate
02:22PM 40.2068 -74.1207 42° Northeast  Level FlightAware Approximate
02:23PM 40.1933 -74.1575 42° Northeast  Level FlightAware Approximate
02:24PM 40.1797 -74.1944 43° Northeast  Level FlightAware Approximate
02:25PM 40.1661 -74.2312 43° Northeast  Level FlightAware Approximate
02:26PM 40.1525 -74.2680 44° Northeast  Level FlightAware Approximate
02:27PM 40.1287 -74.3324 44° Northeast  Level FlightAware Approximate
02:28PM 40.1048 -74.3967 45° Northeast  Level FlightAware Approximate
02:29PM 40.0809 -74.4609 46° Northeast  Level FlightAware Approximate
02:30PM 40.0570 -74.5252 46° Northeast  Level FlightAware Approximate
02:31PM 40.0331 -74.5893 47° Northeast  Level FlightAware Approximate
02:32PM 40.0090 -74.6535 47° Northeast  Level FlightAware Approximate
02:33PM 39.9850 -74.7176 48° Northeast  Level FlightAware Approximate
02:34PM 39.9609 -74.7816 48° Northeast  Level FlightAware Approximate
02:35PM 39.9368 -74.8456 48° Northeast  Level FlightAware Approximate
02:36PM 39.9127 -74.9096 49° Northeast  Level FlightAware Approximate
02:37PM 39.8885 -74.9735 49° Northeast  Level FlightAware Approximate
02:38PM 39.8643 -75.0374 49° Northeast  Level FlightAware Approximate
02:39PM 39.8401 -75.1012 50° Northeast  Level FlightAware Approximate
02:40PM 39.8158 -75.1650 50° Northeast  Level FlightAware Approximate
02:41PM 39.8538 -75.2161 51° Northeast  Level Estimated
02:42PM 40.6000 -72.6833 347° North  Level FlightAware Approximate
02:43PM 40.5797 -72.7502 351° North  Level FlightAware Approximate
02:44PM 40.5593 -72.8170 356° North  Level FlightAware Approximate
02:45PM 40.5390 -72.8837 360° North  Level FlightAware Approximate
02:46PM 40.5186 -72.9504 North  Level FlightAware Approximate
02:47PM 40.4981 -73.0171 North  Level FlightAware Approximate
02:48PM 40.4776 -73.0838 11° North  Level FlightAware Approximate
02:49PM 40.4571 -73.1504 14° North  Level FlightAware Approximate
02:50PM 40.4365 -73.2169 17° North  Level FlightAware Approximate
02:51PM 40.4159 -73.2834 20° North  Level FlightAware Approximate
02:52PM 40.3952 -73.3499 23° Northeast  Level FlightAware Approximate
02:53PM 40.3745 -73.4163 25° Northeast  Level FlightAware Approximate
02:54PM 40.3538 -73.4827 27° Northeast  Level FlightAware Approximate
02:55PM 40.3330 -73.5491 29° Northeast  Level FlightAware Approximate
02:56PM 40.3122 -73.6154 31° Northeast  Level FlightAware Approximate
02:57PM 40.2914 -73.6817 32° Northeast  Level FlightAware Approximate
02:58PM 40.2705 -73.7479 34° Northeast  Level FlightAware Approximate
02:59PM 40.2496 -73.8141 35° Northeast  Level FlightAware Approximate
03:00PM 40.2287 -73.8802 37° Northeast  Level FlightAware Approximate
03:01PM 40.2077 -73.9463 38° Northeast  Level FlightAware Approximate
03:02PM 40.1866 -74.0124 39° Northeast  Level FlightAware Approximate
03:03PM 40.1656 -74.0784 40° Northeast  Level FlightAware Approximate
03:04PM 40.1445 -74.1444 41° Northeast  Level FlightAware Approximate
03:05PM 40.1233 -74.2104 42° Northeast  Level FlightAware Approximate
03:06PM 40.1022 -74.2763 43° Northeast  Level FlightAware Approximate
03:07PM 40.0810 -74.3421 43° Northeast  Level FlightAware Approximate
03:08PM 40.0597 -74.4079 44° Northeast  Level FlightAware Approximate
03:09PM 40.0384 -74.4737 45° Northeast  Level FlightAware Approximate
03:10PM 40.0171 -74.5395 45° Northeast  Level FlightAware Approximate
03:11PM 39.9957 -74.6051 46° Northeast  Level FlightAware Approximate
03:12PM 39.9743 -74.6708 47° Northeast  Level FlightAware Approximate
03:13PM 39.9529 -74.7364 47° Northeast  Level FlightAware Approximate
03:14PM 39.9314 -74.8020 48° Northeast  Level FlightAware Approximate
03:15PM 39.9099 -74.8675 48° Northeast  Level FlightAware Approximate
03:16PM 39.8884 -74.9330 49° Northeast  Level FlightAware Approximate
03:17PM 39.8668 -74.9985 49° Northeast  Level FlightAware Approximate
03:18PM 39.8451 -75.0639 49° Northeast  Level FlightAware Approximate
03:19PM 39.8235 -75.1292 50° Northeast  Level FlightAware Approximate
03:20PM 39.8018 -75.1945 50° Northeast  Level FlightAware Approximate
03:21PM 39.8506 -75.2266 51° Northeast  Level Estimated
03:22PM 39.5745 -75.0991 45° Northeast  Level FlightAware Approximate
03:23PM 39.6223 -75.1335 46° Northeast  Level FlightAware Approximate
03:24PM 39.6701 -75.1680 47° Northeast  Level FlightAware Approximate
03:25PM 39.7179 -75.2026 49° Northeast  Level FlightAware Approximate
03:26PM 39.7656 -75.2372 50° Northeast  Level FlightAware Approximate
03:27PM 39.8173 -75.2432 51° Northeast  Level FlightAware Approximate
03:28PM 39.8720 -75.2409 52° Northeast  Level Estimated
03:29PM 39.9266 -75.2373 53° Northeast  Level Estimated
03:30PM 39.8720 -75.2409 52° Northeast  Level Estimated
03:31PM 39.9266 -75.2373 53° Northeast  Level Estimated
03:32PM 39.8720 -75.2409 52° Northeast  Level Estimated
03:33PM 39.9266 -75.2373 53° Northeast  Level Estimated
03:34PM 39.8667 -75.2333 52° Northeast  Level FlightAware Approximate
03:35PM 39.9046 -75.2846 53° Northeast  Level Estimated
03:36PM 39.8667 -75.2333 52° Northeast  Level FlightAware Approximate
03:37PM 39.9046 -75.2846 53° Northeast  Level Estimated
03:37PM 41.2333 -72.8833 159° South 123 142 1,500  Level New York TRACON
03:38PM 41.2000 -72.8667 143° Southeast 132 152 3,100 1,440 Climbing New York TRACON
03:39PM 41.1667 -72.8333 161° South 138 159 4,600 1,380 Climbing New York TRACON
03:40PM 41.1389 -72.8206 149° Southeast 140 161 5,800 1,500 Climbing Boston Center
03:41PM 41.1078 -72.7956 153° Southeast 140 161 7,500 1,560 Climbing Boston Center
03:42PM 41.0744 -72.7733 151° Southeast 140 161 9,000 1,500 Climbing Boston Center
03:43PM 41.0517 -72.7567 159° South 128 147 10,600 960 Climbing Boston Center
03:44PM 41.0244 -72.7428 149° Southeast 109 125 11,000 180 Climbing Boston Center
03:45PM 40.9892 -72.7150 154° Southeast 123 142 11,000  Level Boston Center
03:46PM 40.9475 -72.6875 151° Southeast 147 169 11,000  Level Boston Center
03:47PM 40.9058 -72.6569 155° Southeast 161 185 11,000  Level Boston Center
03:48PM 40.8561 -72.6267 149° Southeast 176 203 11,000  Level Boston Center
03:49PM 40.8144 -72.5936 152° Southeast 176 203 11,000 300 Level Boston Center
03:50PM 40.7747 -72.5661 156° South 176 203 11,700 840 Climbing Boston Center
03:51PM 40.7414 -72.5469 208° Southwest 157 181 12,700 900 Climbing Boston Center
03:52PM 40.7144 -72.5661 227° Southwest 113 130 13,500 600 Climbing Boston Center
03:53PM 40.6872 -72.6044 219° Southwest 120 138 14,000 240 Climbing Boston Center
03:54PM 40.6517 -72.6425 223° Southwest 146 168 14,000  Level Boston Center
03:57PM 40.5639 -72.7517 224° Southwest 181 208 14,000  Level New York Center
03:58PM 40.5300 -72.7944 223° Southwest 181 208 14,000  Level New York Center
03:59PM 40.4872 -72.8478 224° Southwest 187 215 14,100  Climbing New York Center
04:00PM 40.4553 -72.8878 221° Southwest 187 215 14,100  Level New York Center
04:01PM 40.4128 -72.9356 222° Southwest 192 221 14,100  Level New York Center
04:02PM 40.3786 -72.9753 222° Southwest 186 214 14,100  Level New York Center
04:03PM 40.3383 -73.0231 225° Southwest 186 214 14,100  Level New York Center
04:04PM 40.3061 -73.0653 222° Southwest 186 214 14,100  Level New York Center
04:05PM 40.2656 -73.1131 223° Southwest 186 214 14,100  Level New York Center
04:06PM 40.2292 -73.1581 222° Southwest 191 220 14,100  Level New York Center
04:07PM 40.1931 -73.2003 225° Southwest 186 214 14,100  Level New York Center
04:08PM 40.1586 -73.2453 218° Southwest 186 214 14,100  Level New York Center
04:09PM 40.1203 -73.2844 222° Southwest 186 214 14,100  Level New York Center
04:10PM 40.0819 -73.3292 222° Southwest 186 214 14,100  Level New York Center